createdAt,value
2018-12-23T00:02:15.799Z,52.63
2018-12-23T00:04:44.085Z,57.53
2018-12-23T00:07:12.273Z,53.53
2018-12-23T00:09:40.511Z,52.90
2018-12-23T00:12:08.705Z,58.57
2018-12-23T00:14:36.901Z,49.83
2018-12-23T00:17:05.094Z,47.30
2018-12-23T00:19:33.299Z,44.33
2018-12-23T00:22:01.495Z,48.53
2018-12-23T00:24:29.683Z,50.37
2018-12-23T00:26:57.879Z,46.97
2018-12-23T00:29:26.133Z,73.57
2018-12-23T00:31:54.381Z,52.27
2018-12-23T00:34:22.573Z,54.80
2018-12-23T00:36:50.813Z,48.27
2018-12-23T00:39:19.015Z,47.77
2018-12-23T00:41:47.197Z,64.67
2018-12-23T00:44:15.476Z,58.50
2018-12-23T00:46:43.751Z,65.20
2018-12-23T00:49:12.009Z,57.30
2018-12-23T00:51:40.197Z,60.30
2018-12-23T00:54:08.485Z,69.93
2018-12-23T00:56:37.047Z,56.07
2018-12-23T00:59:05.459Z,66.67
2018-12-23T01:01:33.907Z,60.77
2018-12-23T01:04:02.084Z,49.03
2018-12-23T01:06:30.552Z,63.63
2018-12-23T01:08:58.808Z,53.37
2018-12-23T01:11:27.013Z,60.27
2018-12-23T01:13:55.295Z,47.47
2018-12-23T01:16:23.478Z,53.00
2018-12-23T01:18:51.733Z,54.60
2018-12-23T01:21:19.929Z,46.17
2018-12-23T01:23:48.155Z,40.90
2018-12-23T01:26:16.531Z,51.53
2018-12-23T01:28:44.824Z,57.13
2018-12-23T01:31:13.025Z,50.80
2018-12-23T01:33:41.385Z,61.20
2018-12-23T01:36:09.567Z,53.77
2018-12-23T01:38:37.749Z,59.03
2018-12-23T01:41:06.017Z,53.47
2018-12-23T01:43:34.225Z,66.43
2018-12-23T01:46:02.471Z,54.27
2018-12-23T01:48:31.142Z,55.00
2018-12-23T01:50:59.331Z,57.33
2018-12-23T01:53:27.692Z,57.10
2018-12-23T01:55:55.886Z,69.40
2018-12-23T01:58:24.163Z,55.17
2018-12-23T02:00:52.431Z,51.43
2018-12-23T02:03:20.613Z,65.90
2018-12-23T02:05:48.877Z,68.20
2018-12-23T02:08:19.009Z,54.97
2018-12-23T02:10:49.219Z,60.00
2018-12-23T02:13:19.528Z,52.77
2018-12-23T02:15:49.649Z,50.60
2018-12-23T02:18:19.738Z,61.90
2018-12-23T02:20:49.897Z,62.47
2018-12-23T02:23:20.020Z,61.77
2018-12-23T02:25:50.212Z,44.80
2018-12-23T02:28:20.456Z,57.80
2018-12-23T02:30:50.561Z,53.50
2018-12-23T02:33:20.680Z,66.53
2018-12-23T02:35:55.434Z,57.50
2018-12-23T02:38:22.883Z,50.57
2018-12-23T02:40:52.978Z,54.07
2018-12-23T02:43:23.101Z,57.93
2018-12-23T02:45:53.201Z,59.50
2018-12-23T02:48:23.325Z,54.07
2018-12-23T02:50:53.397Z,48.13
2018-12-23T02:53:21.660Z,54.17
2018-12-23T02:55:49.849Z,49.50
2018-12-23T02:58:18.170Z,57.93
2018-12-23T03:00:46.466Z,60.13
2018-12-23T03:03:14.671Z,55.70
2018-12-23T03:05:42.848Z,50.90
2018-12-23T03:08:11.108Z,65.50
2018-12-23T03:10:39.373Z,49.67
2018-12-23T03:13:08.402Z,55.73
2018-12-23T03:15:36.676Z,59.77
2018-12-23T03:18:05.027Z,55.50
2018-12-23T03:20:33.284Z,64.33
2018-12-23T03:23:01.475Z,55.23
2018-12-23T03:25:29.904Z,53.40
2018-12-23T03:27:58.086Z,53.73
2018-12-23T03:30:26.344Z,57.23
2018-12-23T03:32:54.585Z,65.47
2018-12-23T03:35:22.857Z,59.23
2018-12-23T03:37:51.067Z,50.83
2018-12-23T03:40:19.280Z,58.10
2018-12-23T03:42:47.470Z,60.93
2018-12-23T03:45:15.755Z,60.47
2018-12-23T03:47:43.931Z,51.47
2018-12-23T03:50:12.117Z,55.07
2018-12-23T03:52:40.292Z,55.17
2018-12-23T03:55:08.529Z,51.50
2018-12-23T03:57:36.709Z,57.40
2018-12-23T04:00:05.636Z,47.60
2018-12-23T04:02:33.809Z,60.80
2018-12-23T04:05:02.035Z,53.23
2018-12-23T04:07:30.335Z,52.63
2018-12-23T04:09:58.712Z,51.63
2018-12-23T04:12:26.883Z,56.17
2018-12-23T04:14:55.186Z,54.47
2018-12-23T04:17:23.571Z,52.40
2018-12-23T04:19:51.803Z,50.23
2018-12-23T04:22:20.023Z,51.83
2018-12-23T04:24:48.383Z,51.10
2018-12-23T04:27:16.659Z,50.77
2018-12-23T04:29:44.932Z,54.07
2018-12-23T04:32:13.308Z,54.17
2018-12-23T04:34:41.489Z,74.73
2018-12-23T04:37:09.683Z,54.00
2018-12-23T04:39:37.928Z,56.33
2018-12-23T04:42:06.136Z,57.97
2018-12-23T04:44:34.793Z,48.10
2018-12-23T04:47:02.976Z,56.50
2018-12-23T04:49:31.164Z,55.30
2018-12-23T04:51:59.368Z,53.13
2018-12-23T04:54:27.557Z,62.67
2018-12-23T04:56:55.757Z,61.40
2018-12-23T04:59:24.039Z,50.00
2018-12-23T05:01:52.314Z,53.47
2018-12-23T05:04:20.512Z,58.43
2018-12-23T05:06:48.721Z,46.63
2018-12-23T05:09:16.928Z,51.63
2018-12-23T05:11:45.116Z,65.57
2018-12-23T05:14:13.324Z,57.33
2018-12-23T05:16:41.514Z,51.17
2018-12-23T05:19:09.700Z,53.00
2018-12-23T05:21:38.899Z,60.83
2018-12-23T05:24:07.099Z,53.03
2018-12-23T05:26:35.292Z,52.27
2018-12-23T05:29:03.578Z,53.20
2018-12-23T05:31:31.782Z,52.33
2018-12-23T05:33:59.996Z,54.07
2018-12-23T05:36:28.200Z,58.73
2018-12-23T05:38:56.396Z,63.87
2018-12-23T05:41:24.585Z,51.23
2018-12-23T05:43:52.810Z,48.20
2018-12-23T05:46:21.069Z,47.23
2018-12-23T05:48:49.289Z,53.10
2018-12-23T05:51:17.604Z,48.33
2018-12-23T05:53:45.905Z,48.03
2018-12-23T05:56:14.249Z,59.60
2018-12-23T05:58:42.465Z,53.53
2018-12-23T06:01:10.750Z,61.57
2018-12-23T06:03:39.007Z,57.43
2018-12-23T06:06:07.207Z,61.53
2018-12-23T06:08:35.409Z,53.47
2018-12-23T06:11:03.721Z,58.37
2018-12-23T06:13:32.210Z,61.20
2018-12-23T06:16:00.454Z,67.47
2018-12-23T06:18:28.725Z,56.93
2018-12-23T06:20:56.927Z,53.60
2018-12-23T06:23:25.149Z,62.10
2018-12-23T06:25:53.381Z,60.10
2018-12-23T06:28:21.553Z,62.10
2018-12-23T06:30:49.725Z,55.00
2018-12-23T06:33:17.925Z,66.37
2018-12-23T06:35:46.177Z,66.33
2018-12-23T06:38:14.461Z,53.13
2018-12-23T06:40:43.833Z,59.33
2018-12-23T06:43:12.020Z,62.87
2018-12-23T06:45:40.245Z,69.17
2018-12-23T06:48:08.479Z,57.10
2018-12-23T06:50:36.677Z,65.87
2018-12-23T06:53:04.941Z,78.40
2018-12-23T06:55:33.156Z,60.30
2018-12-23T06:58:01.377Z,51.73
2018-12-23T07:00:29.656Z,62.70
2018-12-23T07:02:57.946Z,64.90
2018-12-23T07:05:26.124Z,74.27
2018-12-23T07:07:54.332Z,65.87
2018-12-23T07:10:22.526Z,67.07
2018-12-23T07:12:50.705Z,64.37
2018-12-23T07:15:18.905Z,58.90
2018-12-23T07:17:47.112Z,59.73
2018-12-23T07:20:15.296Z,57.47
2018-12-23T07:22:43.532Z,63.40
2018-12-23T07:25:11.721Z,71.87
2018-12-23T07:27:39.907Z,62.90
2018-12-23T07:30:08.149Z,65.67
2018-12-23T07:32:36.333Z,61.20
2018-12-23T07:35:04.957Z,57.77
2018-12-23T07:37:33.203Z,69.70
2018-12-23T07:40:01.488Z,65.13
2018-12-23T07:42:30.069Z,59.07
2018-12-23T07:44:58.240Z,64.70
2018-12-23T07:47:26.436Z,49.73
2018-12-23T07:49:54.653Z,62.53
2018-12-23T07:52:22.852Z,56.60
2018-12-23T07:54:51.100Z,59.40
2018-12-23T07:57:19.285Z,60.20
2018-12-23T07:59:47.481Z,66.40
2018-12-23T08:02:15.697Z,61.37
2018-12-23T08:04:43.916Z,65.77
2018-12-23T08:07:12.108Z,63.17
2018-12-23T08:09:40.324Z,55.30
2018-12-23T08:12:08.644Z,55.80
2018-12-23T08:14:36.842Z,57.13
2018-12-23T08:17:05.622Z,55.27
2018-12-23T08:19:33.844Z,59.10
2018-12-23T08:22:02.263Z,65.90
2018-12-23T08:24:30.624Z,50.00
2018-12-23T08:26:58.907Z,63.27
2018-12-23T08:29:27.156Z,56.57
2018-12-23T08:31:55.380Z,62.03
2018-12-23T08:34:23.641Z,59.90
2018-12-23T08:36:51.859Z,58.37
2018-12-23T08:39:20.086Z,69.37
2018-12-23T08:41:48.262Z,56.07
2018-12-23T08:44:16.511Z,61.63
2018-12-23T08:46:44.726Z,46.90
2018-12-23T08:49:12.948Z,66.40
2018-12-23T08:51:41.135Z,64.67
2018-12-23T08:54:09.500Z,56.70
2018-12-23T08:56:37.680Z,62.70
2018-12-23T08:59:05.994Z,64.07
2018-12-23T09:01:34.186Z,54.07
2018-12-23T09:04:02.336Z,57.27
2018-12-23T09:06:30.540Z,63.40
2018-12-23T09:08:58.772Z,57.70
2018-12-23T09:11:27.936Z,55.27
2018-12-23T09:13:56.132Z,67.13
2018-12-23T09:16:24.326Z,60.70
2018-12-23T09:18:52.560Z,64.67
2018-12-23T09:21:20.759Z,56.30
2018-12-23T09:23:49.050Z,61.53
2018-12-23T09:26:17.428Z,57.57
2018-12-23T09:28:45.616Z,60.40
2018-12-23T09:31:13.819Z,63.47
2018-12-23T09:33:42.002Z,67.60
2018-12-23T09:36:10.216Z,62.30
2018-12-23T09:38:38.421Z,56.57
2018-12-23T09:41:06.675Z,64.33
2018-12-23T09:43:34.856Z,58.30
2018-12-23T09:46:03.039Z,64.93
2018-12-23T09:48:31.402Z,57.83
2018-12-23T09:50:59.689Z,62.77
2018-12-23T09:53:27.851Z,58.10
2018-12-23T09:55:56.713Z,59.73
2018-12-23T09:58:24.891Z,64.60
2018-12-23T10:00:53.104Z,58.43
2018-12-23T10:03:21.326Z,56.93
2018-12-23T10:05:49.553Z,49.00
2018-12-23T10:08:17.809Z,50.30
2018-12-23T10:10:45.979Z,40.20
2018-12-23T10:13:14.212Z,41.40
2018-12-23T10:15:42.443Z,62.17
2018-12-23T10:18:10.657Z,42.03
2018-12-23T10:20:38.874Z,43.07
2018-12-23T10:23:07.072Z,42.60
2018-12-23T10:25:35.270Z,38.87
2018-12-23T10:28:03.540Z,47.00
2018-12-23T10:30:31.800Z,42.33
2018-12-23T10:33:00.064Z,36.37
2018-12-23T10:35:28.257Z,37.07
2018-12-23T10:37:56.461Z,42.60
2018-12-23T10:40:24.674Z,38.57
2018-12-23T10:42:52.850Z,37.77
2018-12-23T10:45:21.055Z,34.57
2018-12-23T10:47:49.318Z,39.13
2018-12-23T10:50:17.532Z,36.07
2018-12-23T10:52:45.775Z,32.87
2018-12-23T10:55:13.977Z,40.40
2018-12-23T10:57:42.188Z,32.37
2018-12-23T11:00:13.857Z,35.13
2018-12-23T11:02:41.993Z,37.60
2018-12-23T11:05:10.184Z,29.23
2018-12-23T11:07:38.368Z,31.37
2018-12-23T11:10:06.758Z,31.83
2018-12-23T11:12:34.907Z,28.30
2018-12-23T11:15:03.150Z,27.23
2018-12-23T11:17:31.408Z,27.37
2018-12-23T11:19:59.668Z,27.07
2018-12-23T11:22:27.856Z,28.50
2018-12-23T11:24:56.078Z,26.27
2018-12-23T11:27:24.295Z,23.83
2018-12-23T11:29:52.555Z,27.43
2018-12-23T11:32:20.713Z,22.17
2018-12-23T11:34:48.926Z,21.57
2018-12-23T11:37:17.157Z,21.47
2018-12-23T11:39:45.359Z,25.87
2018-12-23T11:42:13.578Z,28.90
2018-12-23T11:44:41.755Z,28.23
2018-12-23T11:47:09.969Z,24.40
2018-12-23T11:49:38.173Z,18.97
2018-12-23T11:52:06.354Z,23.07
2018-12-23T11:54:34.543Z,20.17
2018-12-23T11:57:02.777Z,20.67
2018-12-23T11:59:31.077Z,18.57
2018-12-23T12:01:59.263Z,15.87
2018-12-23T12:04:27.476Z,23.03
2018-12-23T12:06:55.661Z,20.80
2018-12-23T12:09:23.947Z,17.27
2018-12-23T12:11:52.226Z,13.67
2018-12-23T12:14:20.581Z,15.37
2018-12-23T12:16:48.771Z,16.17
2018-12-23T12:19:16.977Z,12.23
2018-12-23T12:21:45.155Z,13.70
2018-12-23T12:24:13.403Z,16.50
2018-12-23T12:26:41.603Z,12.30
2018-12-23T12:29:10.937Z,8.03
2018-12-23T12:31:39.431Z,11.67
2018-12-23T12:34:07.742Z,9.20
2018-12-23T12:36:37.133Z,12.23
2018-12-23T12:39:06.661Z,9.40
2018-12-23T12:41:34.915Z,9.80
2018-12-23T12:44:03.109Z,13.17
2018-12-23T12:46:31.378Z,11.10
2018-12-23T12:48:59.570Z,9.83
2018-12-23T12:51:27.748Z,8.67
2018-12-23T12:53:56.004Z,12.40
2018-12-23T12:56:24.176Z,7.03
2018-12-23T12:58:52.548Z,9.73
2018-12-23T13:01:20.829Z,10.17
2018-12-23T13:03:49.031Z,11.70
2018-12-23T13:06:17.268Z,8.63
2018-12-23T13:08:45.480Z,11.03
2018-12-23T13:11:13.797Z,13.37
2018-12-23T13:13:42.031Z,11.27
2018-12-23T13:16:10.274Z,47.47
2018-12-23T13:18:38.462Z,12.50
2018-12-23T13:21:06.648Z,9.73
2018-12-23T13:23:34.900Z,10.33
2018-12-23T13:26:03.166Z,11.10
2018-12-23T13:28:31.350Z,8.57
2018-12-23T13:31:00.546Z,11.13
2018-12-23T13:33:28.724Z,7.97
2018-12-23T13:35:56.894Z,10.63
2018-12-23T13:38:25.092Z,9.07
2018-12-23T13:40:58.181Z,8.27
2018-12-23T13:59:03.337Z,10.20
2018-12-23T14:01:58.525Z,6.47
2018-12-23T14:04:36.959Z,9.43
2018-12-23T14:07:37.887Z,8.67
2018-12-23T14:10:28.170Z,11.33
2018-12-23T14:12:59.308Z,9.33
2018-12-23T14:15:28.888Z,10.67
2018-12-23T14:17:58.349Z,11.53
2018-12-23T14:20:27.897Z,11.47
2018-12-23T14:22:57.378Z,9.23
2018-12-23T14:25:27.737Z,11.47
2018-12-23T14:27:57.188Z,11.70
2018-12-23T14:30:26.677Z,10.10
2018-12-23T14:32:56.147Z,11.77
2018-12-23T14:35:25.524Z,13.20
2018-12-23T14:37:55.011Z,12.40
2018-12-23T14:40:24.480Z,10.00
2018-12-23T14:42:54.032Z,10.63
2018-12-23T14:45:23.559Z,10.03
2018-12-23T14:47:53.032Z,12.33
2018-12-23T14:50:22.513Z,13.63
2018-12-23T14:52:51.937Z,13.97
2018-12-23T14:55:21.435Z,13.33
2018-12-23T14:57:50.921Z,15.10
2018-12-23T15:00:20.389Z,14.03
2018-12-23T15:02:49.914Z,14.33
2018-12-23T15:05:19.341Z,14.13
2018-12-23T15:07:48.807Z,14.87
2018-12-23T15:10:18.362Z,13.93
2018-12-23T15:12:47.881Z,13.27
2018-12-23T15:15:17.357Z,12.77
2018-12-23T15:17:46.749Z,14.77
2018-12-23T15:20:16.146Z,14.63
2018-12-23T15:22:45.629Z,18.03
2018-12-23T15:25:15.107Z,16.07
2018-12-23T15:27:44.580Z,19.67
2018-12-23T15:30:13.965Z,18.27
2018-12-23T15:32:43.462Z,22.67
2018-12-23T15:35:12.914Z,26.00
2018-12-23T15:37:42.335Z,24.37
2018-12-23T15:40:11.795Z,29.17
2018-12-23T15:42:41.268Z,29.30
2018-12-23T15:45:10.749Z,30.57
2018-12-23T15:47:40.135Z,32.30
2018-12-23T15:50:09.509Z,33.53
2018-12-23T15:52:38.973Z,28.50
2018-12-23T15:55:08.353Z,35.23
2018-12-23T15:57:37.766Z,34.73
2018-12-23T16:00:09.091Z,35.17
2018-12-23T16:02:38.556Z,34.80
2018-12-23T16:05:07.957Z,33.73
2018-12-23T16:07:37.362Z,34.97
2018-12-23T16:10:08.108Z,37.83
2018-12-23T16:12:37.610Z,33.67
2018-12-23T16:15:07.069Z,35.53
2018-12-23T16:17:36.527Z,38.60
2018-12-23T16:20:08.450Z,32.13
2018-12-23T16:22:37.903Z,31.90
2018-12-23T16:25:07.301Z,31.43
2018-12-23T16:27:36.691Z,29.67
2018-12-23T16:30:09.385Z,32.27
2018-12-23T16:32:38.825Z,29.83
2018-12-23T16:35:08.237Z,32.60
2018-12-23T16:37:37.683Z,37.10
2018-12-23T16:40:10.303Z,33.07
2018-12-23T16:42:39.787Z,35.50
2018-12-23T16:45:09.289Z,33.47
2018-12-23T16:47:38.665Z,35.77
2018-12-23T16:50:08.569Z,33.43
2018-12-23T16:52:38.117Z,29.70
2018-12-23T16:55:07.517Z,29.83
2018-12-23T16:57:37.061Z,26.27
2018-12-23T17:00:09.542Z,29.17
2018-12-23T17:02:39.067Z,28.43
2018-12-23T17:05:08.576Z,29.53
2018-12-23T17:07:38.049Z,35.20
2018-12-23T17:10:08.571Z,29.10
2018-12-23T17:12:38.095Z,30.73
2018-12-23T17:15:07.829Z,31.23
2018-12-23T17:17:37.306Z,34.10
2018-12-23T17:20:09.151Z,35.47
2018-12-23T17:22:38.603Z,35.63
2018-12-23T17:25:08.159Z,38.47
2018-12-23T17:27:37.631Z,34.30
2018-12-23T17:30:07.649Z,36.93
2018-12-23T17:32:37.152Z,34.83
2018-12-23T17:35:06.703Z,36.03
2018-12-23T17:37:36.162Z,29.70
2018-12-23T17:40:06.957Z,26.60
2018-12-23T17:42:36.413Z,29.73
2018-12-23T17:45:05.953Z,28.07
2018-12-23T17:47:35.529Z,28.53
2018-12-23T17:50:07.229Z,30.23
2018-12-23T17:52:36.633Z,20.97
2018-12-23T17:55:06.095Z,23.50
2018-12-23T17:57:35.569Z,27.33
2018-12-23T18:00:05.287Z,21.83
2018-12-23T18:02:34.810Z,21.90
2018-12-23T18:05:05.028Z,19.10
2018-12-23T18:07:34.482Z,22.47
2018-12-23T18:10:04.314Z,21.43
2018-12-23T18:12:34.465Z,23.73
2018-12-23T18:15:04.884Z,22.23
2018-12-23T18:17:34.520Z,25.13
2018-12-23T18:20:05.213Z,21.10
2018-12-23T18:22:34.740Z,17.83
2018-12-23T18:25:04.193Z,21.57
2018-12-23T18:27:33.938Z,21.80
2018-12-23T18:30:03.553Z,20.33
2018-12-23T18:32:33.097Z,18.63
2018-12-23T18:35:02.594Z,18.60
2018-12-23T18:37:32.089Z,15.60
2018-12-23T18:40:01.499Z,18.13
2018-12-23T18:42:31.166Z,20.23
2018-12-23T18:45:00.639Z,15.67
2018-12-23T18:47:30.142Z,17.40
2018-12-23T18:49:59.598Z,17.73
2018-12-23T18:52:28.992Z,13.10
2018-12-23T18:54:58.477Z,15.63
2018-12-23T18:57:27.870Z,17.47
2018-12-23T18:59:57.332Z,17.87
2018-12-23T19:02:28.768Z,15.27
2018-12-23T19:04:58.142Z,17.57
2018-12-23T19:07:27.650Z,13.97
2018-12-23T19:09:57.439Z,14.40
2018-12-23T19:12:57.152Z,17.97
2018-12-23T19:15:35.153Z,15.23
2018-12-23T19:18:07.712Z,16.37
2018-12-23T19:20:55.145Z,20.03
2018-12-23T19:23:43.348Z,20.37
2018-12-23T19:26:36.691Z,21.77
2018-12-23T19:29:18.217Z,21.23
2018-12-23T19:32:08.637Z,21.17
2018-12-23T19:35:12.682Z,23.70
2018-12-23T19:37:53.623Z,22.97
2018-12-23T19:40:51.599Z,21.77
2018-12-23T19:43:35.929Z,24.00
2018-12-23T19:46:25.085Z,23.33
2018-12-23T19:49:32.113Z,29.00
2018-12-23T19:52:24.345Z,27.83
2018-12-23T19:54:56.837Z,21.97
2018-12-23T19:57:29.315Z,25.73
2018-12-23T20:00:19.921Z,24.03
2018-12-23T20:02:58.289Z,24.07
2018-12-23T20:05:48.017Z,19.03
2018-12-23T20:08:20.553Z,22.30
2018-12-23T20:11:04.802Z,14.47
2018-12-23T20:13:53.925Z,20.50
2018-12-23T20:16:29.225Z,18.57
2018-12-23T20:19:25.517Z,22.93
2018-12-23T20:22:17.172Z,24.07
2018-12-23T20:24:55.289Z,25.87
2018-12-23T20:28:00.668Z,17.17
2018-12-23T20:30:48.113Z,19.57
2018-12-23T20:33:29.428Z,25.03
2018-12-23T20:36:21.249Z,29.77
2018-12-23T20:39:16.298Z,32.80
2018-12-23T20:42:05.037Z,41.63
2018-12-23T20:44:53.785Z,37.43
2018-12-23T20:47:38.013Z,44.40
2018-12-23T20:50:31.013Z,15.33
2018-12-23T20:53:03.649Z,6.87
2018-12-23T20:55:50.839Z,6.27
2018-12-23T20:58:34.997Z,8.07
2018-12-23T21:01:35.769Z,8.77
2018-12-23T21:04:10.990Z,8.10
2018-12-23T21:06:46.527Z,9.63
2018-12-23T21:09:41.383Z,9.57
2018-12-23T21:12:31.678Z,8.80
2018-12-23T21:15:26.767Z,10.60
2018-12-23T21:18:04.878Z,11.77
2018-12-23T21:20:43.148Z,15.27
2018-12-23T21:23:27.518Z,10.50
2018-12-23T21:26:28.630Z,15.87
2018-12-23T21:29:04.273Z,14.97
2018-12-23T21:31:36.830Z,14.97
2018-12-23T21:34:37.545Z,16.17
2018-12-23T21:37:12.684Z,15.43
2018-12-23T21:40:14.902Z,10.43
2018-12-23T21:43:11.641Z,9.23
2018-12-23T21:45:53.291Z,10.17
2018-12-23T21:48:42.324Z,8.63
2018-12-23T21:51:17.422Z,10.90
2018-12-23T21:53:52.701Z,12.17
2018-12-23T21:56:43.188Z,9.87
2018-12-23T21:59:33.808Z,9.37
2018-12-23T22:02:41.068Z,10.17
2018-12-23T22:05:13.622Z,10.10
2018-12-23T22:08:00.758Z,10.03
2018-12-23T22:10:38.846Z,11.30
2018-12-23T22:13:26.503Z,12.93
2018-12-23T22:15:56.062Z,15.90
2018-12-23T22:18:25.522Z,16.07
2018-12-23T22:20:54.969Z,17.30
2018-12-23T22:23:24.666Z,18.60
2018-12-23T22:25:54.186Z,17.57
2018-12-23T22:28:23.651Z,20.87
2018-12-23T22:30:53.020Z,18.60
2018-12-23T22:33:22.416Z,16.10
2018-12-23T22:35:51.910Z,18.30
2018-12-23T22:38:21.372Z,16.00
2018-12-23T22:40:50.770Z,17.27
2018-12-23T22:43:20.251Z,22.70
2018-12-23T22:45:49.620Z,22.07
2018-12-23T22:48:19.106Z,25.13
2018-12-23T22:50:48.481Z,26.53
2018-12-23T22:53:17.928Z,31.10
2018-12-23T22:55:47.326Z,28.90
2018-12-23T22:58:16.776Z,31.57
2018-12-23T23:00:46.318Z,28.83
2018-12-23T23:03:15.684Z,29.83
2018-12-23T23:05:45.065Z,32.53
2018-12-23T23:08:14.546Z,36.40
2018-12-23T23:10:44.001Z,32.23
2018-12-23T23:13:18.499Z,37.03
2018-12-23T23:15:44.491Z,39.00
2018-12-23T23:18:13.974Z,39.17
2018-12-23T23:20:43.456Z,33.30
2018-12-23T23:23:12.891Z,40.97
2018-12-23T23:25:42.274Z,31.87
2018-12-23T23:28:11.680Z,24.73
2018-12-23T23:30:41.056Z,23.90
2018-12-23T23:33:10.507Z,22.53
2018-12-23T23:35:40.078Z,24.43
2018-12-23T23:38:09.542Z,24.33
2018-12-23T23:40:39.096Z,27.70
2018-12-23T23:43:08.570Z,26.20
2018-12-23T23:45:38.017Z,20.47
2018-12-23T23:48:07.412Z,19.03
2018-12-23T23:50:36.855Z,18.70
2018-12-23T23:53:06.319Z,20.63
2018-12-23T23:55:35.809Z,19.43
2018-12-23T23:58:05.325Z,21.67
